sensor_id;sensor_type;location;lat;lon;timestamp;temperature;humidity
21592;DHT22;10958;50.892;3.992;2023-02-10T00:01:31;5.00;99.90
21592;DHT22;10958;50.892;3.992;2023-02-10T00:03:57;5.00;99.90
21592;DHT22;10958;50.892;3.992;2023-02-10T00:06:27;5.10;99.90
21592;DHT22;10958;50.892;3.992;2023-02-10T00:08:55;5.30;99.90
21592;DHT22;10958;50.892;3.992;2023-02-10T00:11:24;5.20;99.90
21592;DHT22;10958;50.892;3.992;2023-02-10T00:14:09;5.30;99.90
21592;DHT22;10958;50.892;3.992;2023-02-10T00:16:36;5.10;99.90
21592;DHT22;10958;50.892;3.992;2023-02-10T00:19:04;5.20;99.90
21592;DHT22;10958;50.892;3.992;2023-02-10T00:21:30;5.20;99.90
21592;DHT22;10958;50.892;3.992;2023-02-10T00:23:56;5.20;99.90
21592;DHT22;10958;50.892;3.992;2023-02-10T00:26:25;5.10;99.90
21592;DHT22;10958;50.892;3.992;2023-02-10T00:28:51;4.90;99.90
21592;DHT22;10958;50.892;3.992;2023-02-10T00:31:18;4.80;99.90
21592;DHT22;10958;50.892;3.992;2023-02-10T00:33:44;4.80;99.90
21592;DHT22;10958;50.892;3.992;2023-02-10T00:36:12;5.00;99.90
21592;DHT22;10958;50.892;3.992;2023-02-10T00:38:42;5.00;99.90
21592;DHT22;10958;50.892;3.992;2023-02-10T00:41:13;5.10;99.90
21592;DHT22;10958;50.892;3.992;2023-02-10T00:43:40;5.20;99.90
21592;DHT22;10958;50.892;3.992;2023-02-10T00:46:09;5.30;99.90
21592;DHT22;10958;50.892;3.992;2023-02-10T00:48:35;5.20;99.90
21592;DHT22;10958;50.892;3.992;2023-02-10T00:51:06;5.30;99.90
21592;DHT22;10958;50.892;3.992;2023-02-10T00:53:32;5.20;99.90
21592;DHT22;10958;50.892;3.992;2023-02-10T00:56:01;5.00;99.90
21592;DHT22;10958;50.892;3.992;2023-02-10T00:58:27;5.10;99.90
21592;DHT22;10958;50.892;3.992;2023-02-10T01:00:54;5.00;99.90
21592;DHT22;10958;50.892;3.992;2023-02-10T01:03:22;4.90;99.90
21592;DHT22;10958;50.892;3.992;2023-02-10T01:05:51;4.90;99.90
21592;DHT22;10958;50.892;3.992;2023-02-10T01:08:17;4.90;99.90
21592;DHT22;10958;50.892;3.992;2023-02-10T01:10:46;4.80;99.90
21592;DHT22;10958;50.892;3.992;2023-02-10T01:13:13;4.70;99.90
21592;DHT22;10958;50.892;3.992;2023-02-10T01:15:43;4.60;99.90
21592;DHT22;10958;50.892;3.992;2023-02-10T01:18:13;4.70;99.90
21592;DHT22;10958;50.892;3.992;2023-02-10T01:20:40;4.80;99.90
21592;DHT22;10958;50.892;3.992;2023-02-10T01:23:06;4.60;99.90
21592;DHT22;10958;50.892;3.992;2023-02-10T01:25:33;4.20;99.90
21592;DHT22;10958;50.892;3.992;2023-02-10T01:28:03;4.00;99.90
21592;DHT22;10958;50.892;3.992;2023-02-10T01:30:28;3.90;99.90
21592;DHT22;10958;50.892;3.992;2023-02-10T01:32:55;4.10;99.90
21592;DHT22;10958;50.892;3.992;2023-02-10T01:35:24;4.30;99.90
21592;DHT22;10958;50.892;3.992;2023-02-10T01:37:49;4.30;99.90
21592;DHT22;10958;50.892;3.992;2023-02-10T01:40:15;4.40;99.90
21592;DHT22;10958;50.892;3.992;2023-02-10T01:42:41;4.10;99.90
21592;DHT22;10958;50.892;3.992;2023-02-10T01:47:58;4.20;99.90
21592;DHT22;10958;50.892;3.992;2023-02-10T01:50:42;4.00;99.90
21592;DHT22;10958;50.892;3.992;2023-02-10T01:53:10;3.80;99.90
21592;DHT22;10958;50.892;3.992;2023-02-10T01:55:40;3.80;99.90
21592;DHT22;10958;50.892;3.992;2023-02-10T01:58:09;3.70;99.90
21592;DHT22;10958;50.892;3.992;2023-02-10T02:00:39;3.80;99.90
21592;DHT22;10958;50.892;3.992;2023-02-10T02:03:08;3.90;99.90
21592;DHT22;10958;50.892;3.992;2023-02-10T02:11:00;4.00;99.90
21592;DHT22;10958;50.892;3.992;2023-02-10T02:16:51;3.20;99.90
21592;DHT22;10958;50.892;3.992;2023-02-10T02:22:19;3.40;99.90
21592;DHT22;10958;50.892;3.992;2023-02-10T02:25:07;3.60;99.90
21592;DHT22;10958;50.892;3.992;2023-02-10T02:30:27;3.70;99.90
21592;DHT22;10958;50.892;3.992;2023-02-10T02:33:07;3.80;99.90
21592;DHT22;10958;50.892;3.992;2023-02-10T02:35:42;3.80;99.90
21592;DHT22;10958;50.892;3.992;2023-02-10T02:38:10;3.70;99.90
21592;DHT22;10958;50.892;3.992;2023-02-10T02:40:39;3.60;99.90
21592;DHT22;10958;50.892;3.992;2023-02-10T02:43:05;3.60;99.90
21592;DHT22;10958;50.892;3.992;2023-02-10T02:45:50;3.70;99.90
21592;DHT22;10958;50.892;3.992;2023-02-10T02:50:57;3.90;99.90
21592;DHT22;10958;50.892;3.992;2023-02-10T02:56:14;3.90;99.90
21592;DHT22;10958;50.892;3.992;2023-02-10T02:59:04;3.80;99.90
21592;DHT22;10958;50.892;3.992;2023-02-10T03:02:09;3.80;99.90
21592;DHT22;10958;50.892;3.992;2023-02-10T03:04:37;3.70;99.90
21592;DHT22;10958;50.892;3.992;2023-02-10T03:07:04;3.80;99.90
21592;DHT22;10958;50.892;3.992;2023-02-10T03:09:30;3.80;99.90
21592;DHT22;10958;50.892;3.992;2023-02-10T03:11:56;3.80;99.90
21592;DHT22;10958;50.892;3.992;2023-02-10T03:14:24;3.70;99.90
21592;DHT22;10958;50.892;3.992;2023-02-10T03:16:52;3.70;99.90
21592;DHT22;10958;50.892;3.992;2023-02-10T03:19:18;3.80;99.90
21592;DHT22;10958;50.892;3.992;2023-02-10T03:21:46;3.90;99.90
21592;DHT22;10958;50.892;3.992;2023-02-10T03:24:13;3.90;99.90
21592;DHT22;10958;50.892;3.992;2023-02-10T03:26:39;3.80;99.90
21592;DHT22;10958;50.892;3.992;2023-02-10T03:29:05;3.80;99.90
21592;DHT22;10958;50.892;3.992;2023-02-10T03:31:31;3.90;99.90
21592;DHT22;10958;50.892;3.992;2023-02-10T03:33:57;3.90;99.90
21592;DHT22;10958;50.892;3.992;2023-02-10T03:36:25;3.80;99.90
21592;DHT22;10958;50.892;3.992;2023-02-10T03:38:51;3.60;99.90
21592;DHT22;10958;50.892;3.992;2023-02-10T03:41:17;3.60;99.90
21592;DHT22;10958;50.892;3.992;2023-02-10T03:43:42;3.40;99.90
21592;DHT22;10958;50.892;3.992;2023-02-10T03:46:09;3.40;99.90
21592;DHT22;10958;50.892;3.992;2023-02-10T03:48:35;3.20;99.90
21592;DHT22;10958;50.892;3.992;2023-02-10T03:51:04;3.20;99.90
21592;DHT22;10958;50.892;3.992;2023-02-10T03:53:31;3.20;99.90
21592;DHT22;10958;50.892;3.992;2023-02-10T03:55:57;3.30;99.90
21592;DHT22;10958;50.892;3.992;2023-02-10T03:58:23;3.50;99.90
21592;DHT22;10958;50.892;3.992;2023-02-10T04:00:49;3.60;99.90
21592;DHT22;10958;50.892;3.992;2023-02-10T04:03:15;3.60;99.90
21592;DHT22;10958;50.892;3.992;2023-02-10T04:05:45;3.50;99.90
21592;DHT22;10958;50.892;3.992;2023-02-10T04:08:13;3.60;99.90
21592;DHT22;10958;50.892;3.992;2023-02-10T04:10:39;3.80;99.90
21592;DHT22;10958;50.892;3.992;2023-02-10T04:13:08;3.90;99.90
21592;DHT22;10958;50.892;3.992;2023-02-10T04:15:33;3.80;99.90
21592;DHT22;10958;50.892;3.992;2023-02-10T04:17:59;3.90;99.90
21592;DHT22;10958;50.892;3.992;2023-02-10T04:20:25;3.80;99.90
21592;DHT22;10958;50.892;3.992;2023-02-10T04:22:51;3.70;99.90
21592;DHT22;10958;50.892;3.992;2023-02-10T04:25:18;3.80;99.90
21592;DHT22;10958;50.892;3.992;2023-02-10T04:27:46;3.80;99.90
21592;DHT22;10958;50.892;3.992;2023-02-10T04:30:12;3.40;99.90
21592;DHT22;10958;50.892;3.992;2023-02-10T04:32:38;3.30;99.90
21592;DHT22;10958;50.892;3.992;2023-02-10T04:35:04;3.10;99.90
21592;DHT22;10958;50.892;3.992;2023-02-10T04:37:30;3.10;99.90
21592;DHT22;10958;50.892;3.992;2023-02-10T04:39:58;3.20;99.90
21592;DHT22;10958;50.892;3.992;2023-02-10T04:42:26;3.20;99.90
21592;DHT22;10958;50.892;3.992;2023-02-10T04:44:56;3.20;99.90
21592;DHT22;10958;50.892;3.992;2023-02-10T04:47:24;3.10;99.90
21592;DHT22;10958;50.892;3.992;2023-02-10T04:49:50;3.20;99.90
21592;DHT22;10958;50.892;3.992;2023-02-10T04:52:15;3.20;99.90
21592;DHT22;10958;50.892;3.992;2023-02-10T04:54:43;3.40;99.90
21592;DHT22;10958;50.892;3.992;2023-02-10T04:57:09;3.40;99.90
21592;DHT22;10958;50.892;3.992;2023-02-10T04:59:37;3.50;99.90
21592;DHT22;10958;50.892;3.992;2023-02-10T05:02:03;3.50;99.90
21592;DHT22;10958;50.892;3.992;2023-02-10T05:04:32;3.50;99.90
21592;DHT22;10958;50.892;3.992;2023-02-10T05:06:57;3.70;99.90
21592;DHT22;10958;50.892;3.992;2023-02-10T05:09:24;3.70;99.90
21592;DHT22;10958;50.892;3.992;2023-02-10T05:11:52;3.50;99.90
21592;DHT22;10958;50.892;3.992;2023-02-10T05:14:18;3.60;99.90
21592;DHT22;10958;50.892;3.992;2023-02-10T05:16:48;3.70;99.90
21592;DHT22;10958;50.892;3.992;2023-02-10T05:19:14;3.80;99.90
21592;DHT22;10958;50.892;3.992;2023-02-10T05:21:40;3.80;99.90
21592;DHT22;10958;50.892;3.992;2023-02-10T05:24:06;3.60;99.90
21592;DHT22;10958;50.892;3.992;2023-02-10T05:26:35;3.70;99.90
21592;DHT22;10958;50.892;3.992;2023-02-10T05:29:03;3.70;99.90
21592;DHT22;10958;50.892;3.992;2023-02-10T05:31:29;3.60;99.90
21592;DHT22;10958;50.892;3.992;2023-02-10T05:33:54;3.60;99.90
21592;DHT22;10958;50.892;3.992;2023-02-10T05:36:21;3.70;99.90
21592;DHT22;10958;50.892;3.992;2023-02-10T05:38:47;3.60;99.90
21592;DHT22;10958;50.892;3.992;2023-02-10T05:41:31;3.50;99.90
21592;DHT22;10958;50.892;3.992;2023-02-10T05:43:57;3.50;99.90
21592;DHT22;10958;50.892;3.992;2023-02-10T05:46:23;3.30;99.90
21592;DHT22;10958;50.892;3.992;2023-02-10T05:48:49;3.30;99.90
21592;DHT22;10958;50.892;3.992;2023-02-10T05:51:14;3.30;99.90
21592;DHT22;10958;50.892;3.992;2023-02-10T05:53:41;3.20;99.90
21592;DHT22;10958;50.892;3.992;2023-02-10T05:56:06;3.20;99.90
21592;DHT22;10958;50.892;3.992;2023-02-10T05:58:32;3.10;99.90
21592;DHT22;10958;50.892;3.992;2023-02-10T06:01:01;3.10;99.90
21592;DHT22;10958;50.892;3.992;2023-02-10T06:03:30;3.10;99.90
21592;DHT22;10958;50.892;3.992;2023-02-10T06:05:56;3.00;99.90
21592;DHT22;10958;50.892;3.992;2023-02-10T06:08:23;3.10;99.90
21592;DHT22;10958;50.892;3.992;2023-02-10T06:10:49;3.00;99.90
21592;DHT22;10958;50.892;3.992;2023-02-10T06:13:15;3.00;99.90
21592;DHT22;10958;50.892;3.992;2023-02-10T06:15:42;2.90;99.90
21592;DHT22;10958;50.892;3.992;2023-02-10T06:18:09;2.90;99.90
21592;DHT22;10958;50.892;3.992;2023-02-10T06:20:34;2.80;99.90
21592;DHT22;10958;50.892;3.992;2023-02-10T06:23:00;2.80;99.90
21592;DHT22;10958;50.892;3.992;2023-02-10T06:25:29;2.70;99.90
21592;DHT22;10958;50.892;3.992;2023-02-10T06:27:55;2.90;99.90
21592;DHT22;10958;50.892;3.992;2023-02-10T06:30:20;3.00;99.90
21592;DHT22;10958;50.892;3.992;2023-02-10T06:32:47;2.90;99.90
21592;DHT22;10958;50.892;3.992;2023-02-10T06:35:13;2.90;99.90
21592;DHT22;10958;50.892;3.992;2023-02-10T06:37:39;2.90;99.90
21592;DHT22;10958;50.892;3.992;2023-02-10T06:40:06;3.00;99.90
21592;DHT22;10958;50.892;3.992;2023-02-10T06:42:32;3.00;99.90
21592;DHT22;10958;50.892;3.992;2023-02-10T06:44:58;2.90;99.90
21592;DHT22;10958;50.892;3.992;2023-02-10T06:47:24;3.00;99.90
21592;DHT22;10958;50.892;3.992;2023-02-10T06:49:50;2.90;99.90
21592;DHT22;10958;50.892;3.992;2023-02-10T06:52:15;2.90;99.90
21592;DHT22;10958;50.892;3.992;2023-02-10T06:54:44;2.90;99.90
21592;DHT22;10958;50.892;3.992;2023-02-10T06:57:10;3.00;99.90
21592;DHT22;10958;50.892;3.992;2023-02-10T06:59:36;2.90;99.90
21592;DHT22;10958;50.892;3.992;2023-02-10T07:02:04;3.00;99.90
21592;DHT22;10958;50.892;3.992;2023-02-10T07:04:31;3.10;99.90
21592;DHT22;10958;50.892;3.992;2023-02-10T07:06:57;3.10;99.90
21592;DHT22;10958;50.892;3.992;2023-02-10T07:09:24;3.10;99.90
21592;DHT22;10958;50.892;3.992;2023-02-10T07:11:50;3.10;99.90
21592;DHT22;10958;50.892;3.992;2023-02-10T07:14:16;3.00;99.90
21592;DHT22;10958;50.892;3.992;2023-02-10T07:16:42;3.20;99.90
21592;DHT22;10958;50.892;3.992;2023-02-10T07:19:10;3.30;99.90
21592;DHT22;10958;50.892;3.992;2023-02-10T07:21:36;3.20;99.90
21592;DHT22;10958;50.892;3.992;2023-02-10T07:24:04;3.10;99.90
21592;DHT22;10958;50.892;3.992;2023-02-10T07:26:29;3.20;99.90
21592;DHT22;10958;50.892;3.992;2023-02-10T07:28:55;3.20;99.90
21592;DHT22;10958;50.892;3.992;2023-02-10T07:31:21;3.30;99.90
21592;DHT22;10958;50.892;3.992;2023-02-10T07:33:47;3.30;99.90
21592;DHT22;10958;50.892;3.992;2023-02-10T07:36:12;3.20;99.90
21592;DHT22;10958;50.892;3.992;2023-02-10T07:38:41;3.10;99.90
21592;DHT22;10958;50.892;3.992;2023-02-10T07:41:07;3.10;99.90
21592;DHT22;10958;50.892;3.992;2023-02-10T07:43:33;3.30;99.90
21592;DHT22;10958;50.892;3.992;2023-02-10T07:46:01;3.10;99.90
21592;DHT22;10958;50.892;3.992;2023-02-10T07:48:27;3.00;99.90
21592;DHT22;10958;50.892;3.992;2023-02-10T07:50:55;3.10;99.90
21592;DHT22;10958;50.892;3.992;2023-02-10T07:53:21;3.30;99.90
21592;DHT22;10958;50.892;3.992;2023-02-10T07:55:48;3.30;99.90
21592;DHT22;10958;50.892;3.992;2023-02-10T07:58:14;3.30;99.90
21592;DHT22;10958;50.892;3.992;2023-02-10T08:00:40;3.40;99.90
21592;DHT22;10958;50.892;3.992;2023-02-10T08:03:12;3.50;99.90
21592;DHT22;10958;50.892;3.992;2023-02-10T08:05:41;3.40;99.90
21592;DHT22;10958;50.892;3.992;2023-02-10T08:08:08;3.40;99.90
21592;DHT22;10958;50.892;3.992;2023-02-10T08:10:36;3.50;99.90
21592;DHT22;10958;50.892;3.992;2023-02-10T08:13:05;3.50;99.90
21592;DHT22;10958;50.892;3.992;2023-02-10T08:15:34;3.60;99.90
21592;DHT22;10958;50.892;3.992;2023-02-10T08:18:02;3.60;99.90
21592;DHT22;10958;50.892;3.992;2023-02-10T08:20:30;3.70;99.90
21592;DHT22;10958;50.892;3.992;2023-02-10T08:22:57;3.70;99.90
21592;DHT22;10958;50.892;3.992;2023-02-10T08:25:24;3.80;99.90
21592;DHT22;10958;50.892;3.992;2023-02-10T08:27:55;3.70;99.90
21592;DHT22;10958;50.892;3.992;2023-02-10T08:30:24;3.90;99.90
21592;DHT22;10958;50.892;3.992;2023-02-10T08:35:25;3.80;99.90
21592;DHT22;10958;50.892;3.992;2023-02-10T08:37:54;4.00;99.90
21592;DHT22;10958;50.892;3.992;2023-02-10T08:40:20;3.90;99.90
21592;DHT22;10958;50.892;3.992;2023-02-10T08:42:46;3.90;99.90
21592;DHT22;10958;50.892;3.992;2023-02-10T08:45:12;3.90;99.90
21592;DHT22;10958;50.892;3.992;2023-02-10T08:47:38;4.00;99.90
21592;DHT22;10958;50.892;3.992;2023-02-10T08:50:04;4.00;99.90
21592;DHT22;10958;50.892;3.992;2023-02-10T08:52:30;4.10;99.90
21592;DHT22;10958;50.892;3.992;2023-02-10T08:54:56;4.10;99.90
21592;DHT22;10958;50.892;3.992;2023-02-10T08:57:24;4.10;99.90
21592;DHT22;10958;50.892;3.992;2023-02-10T08:59:50;4.20;99.90
21592;DHT22;10958;50.892;3.992;2023-02-10T09:02:16;4.20;99.90
21592;DHT22;10958;50.892;3.992;2023-02-10T09:04:43;4.40;99.90
21592;DHT22;10958;50.892;3.992;2023-02-10T09:07:08;4.50;99.90
21592;DHT22;10958;50.892;3.992;2023-02-10T09:09:40;4.70;99.90
21592;DHT22;10958;50.892;3.992;2023-02-10T09:12:08;4.60;99.90
21592;DHT22;10958;50.892;3.992;2023-02-10T09:15:14;4.50;99.90
21592;DHT22;10958;50.892;3.992;2023-02-10T09:17:40;4.50;99.90
21592;DHT22;10958;50.892;3.992;2023-02-10T09:20:06;4.60;99.90
21592;DHT22;10958;50.892;3.992;2023-02-10T09:22:34;4.90;99.90
21592;DHT22;10958;50.892;3.992;2023-02-10T09:25:01;4.90;99.90
21592;DHT22;10958;50.892;3.992;2023-02-10T09:27:26;5.00;99.90
21592;DHT22;10958;50.892;3.992;2023-02-10T09:29:55;5.00;99.90
21592;DHT22;10958;50.892;3.992;2023-02-10T09:32:21;4.90;99.90
21592;DHT22;10958;50.892;3.992;2023-02-10T09:34:47;5.00;99.90
21592;DHT22;10958;50.892;3.992;2023-02-10T09:37:13;5.10;99.90
21592;DHT22;10958;50.892;3.992;2023-02-10T09:39:38;5.10;99.90
21592;DHT22;10958;50.892;3.992;2023-02-10T09:45:09;5.30;99.90
21592;DHT22;10958;50.892;3.992;2023-02-10T09:50:44;5.10;99.90
21592;DHT22;10958;50.892;3.992;2023-02-10T09:53:31;5.00;99.90
21592;DHT22;10958;50.892;3.992;2023-02-10T09:56:01;5.10;99.90
21592;DHT22;10958;50.892;3.992;2023-02-10T09:58:51;5.30;99.90
21592;DHT22;10958;50.892;3.992;2023-02-10T10:01:35;5.40;99.90
21592;DHT22;10958;50.892;3.992;2023-02-10T10:04:05;5.50;99.90
21592;DHT22;10958;50.892;3.992;2023-02-10T10:06:50;5.50;99.90
21592;DHT22;10958;50.892;3.992;2023-02-10T10:11:53;5.50;99.90
21592;DHT22;10958;50.892;3.992;2023-02-10T10:14:49;5.70;99.90
21592;DHT22;10958;50.892;3.992;2023-02-10T10:23:03;5.30;99.90
21592;DHT22;10958;50.892;3.992;2023-02-10T10:25:53;5.40;99.90
21592;DHT22;10958;50.892;3.992;2023-02-10T10:31:17;5.80;99.90
21592;DHT22;10958;50.892;3.992;2023-02-10T10:34:03;5.80;99.90
21592;DHT22;10958;50.892;3.992;2023-02-10T10:36:43;5.80;99.90
21592;DHT22;10958;50.892;3.992;2023-02-10T10:42:49;5.80;99.90
21592;DHT22;10958;50.892;3.992;2023-02-10T10:45:15;5.90;99.90
21592;DHT22;10958;50.892;3.992;2023-02-10T10:47:46;6.10;99.90
21592;DHT22;10958;50.892;3.992;2023-02-10T10:50:19;6.00;99.90
21592;DHT22;10958;50.892;3.992;2023-02-10T10:52:46;5.90;99.90
21592;DHT22;10958;50.892;3.992;2023-02-10T10:55:39;6.00;99.90
21592;DHT22;10958;50.892;3.992;2023-02-10T11:00:55;6.10;99.90
21592;DHT22;10958;50.892;3.992;2023-02-10T11:03:21;6.20;99.90
21592;DHT22;10958;50.892;3.992;2023-02-10T11:08:38;6.20;99.90
21592;DHT22;10958;50.892;3.992;2023-02-10T11:11:12;6.40;99.90
21592;DHT22;10958;50.892;3.992;2023-02-10T11:13:47;6.50;99.90
21592;DHT22;10958;50.892;3.992;2023-02-10T11:16:14;6.40;99.90
21592;DHT22;10958;50.892;3.992;2023-02-10T11:19:00;6.60;99.90
21592;DHT22;10958;50.892;3.992;2023-02-10T11:21:38;6.60;99.90
21592;DHT22;10958;50.892;3.992;2023-02-10T11:24:35;6.90;99.90
21592;DHT22;10958;50.892;3.992;2023-02-10T11:27:13;7.00;99.90
21592;DHT22;10958;50.892;3.992;2023-02-10T11:30:05;7.00;99.90
21592;DHT22;10958;50.892;3.992;2023-02-10T11:32:34;7.00;99.90
21592;DHT22;10958;50.892;3.992;2023-02-10T11:35:03;6.90;99.90
21592;DHT22;10958;50.892;3.992;2023-02-10T11:37:33;7.10;99.90
21592;DHT22;10958;50.892;3.992;2023-02-10T11:42:49;7.30;99.90
21592;DHT22;10958;50.892;3.992;2023-02-10T11:45:24;7.30;99.90
21592;DHT22;10958;50.892;3.992;2023-02-10T11:50:29;7.20;99.90
21592;DHT22;10958;50.892;3.992;2023-02-10T11:52:55;7.00;99.90
21592;DHT22;10958;50.892;3.992;2023-02-10T11:55:25;7.10;99.90
21592;DHT22;10958;50.892;3.992;2023-02-10T11:58:40;7.20;99.90
21592;DHT22;10958;50.892;3.992;2023-02-10T12:04:32;7.00;99.90
21592;DHT22;10958;50.892;3.992;2023-02-10T12:07:28;6.80;99.90
21592;DHT22;10958;50.892;3.992;2023-02-10T12:10:24;6.90;99.90
21592;DHT22;10958;50.892;3.992;2023-02-10T12:13:18;6.80;99.90
21592;DHT22;10958;50.892;3.992;2023-02-10T12:18:52;7.10;99.90
21592;DHT22;10958;50.892;3.992;2023-02-10T12:21:39;7.10;99.90
21592;DHT22;10958;50.892;3.992;2023-02-10T12:27:11;7.10;99.90
21592;DHT22;10958;50.892;3.992;2023-02-10T12:30:02;7.20;99.90
21592;DHT22;10958;50.892;3.992;2023-02-10T12:46:23;7.40;99.90
21592;DHT22;10958;50.892;3.992;2023-02-10T12:50:04;7.30;99.90
21592;DHT22;10958;50.892;3.992;2023-02-10T12:52:09;7.20;99.90
21592;DHT22;10958;50.892;3.992;2023-02-10T12:54:52;7.20;99.90
21592;DHT22;10958;50.892;3.992;2023-02-10T13:00:24;7.30;99.90
21592;DHT22;10958;50.892;3.992;2023-02-10T13:05:49;7.40;99.90
21592;DHT22;10958;50.892;3.992;2023-02-10T13:08:36;7.60;99.90
21592;DHT22;10958;50.892;3.992;2023-02-10T13:11:34;7.50;99.90
21592;DHT22;10958;50.892;3.992;2023-02-10T13:13:58;7.50;99.90
21592;DHT22;10958;50.892;3.992;2023-02-10T13:16:30;7.40;99.90
21592;DHT22;10958;50.892;3.992;2023-02-10T13:19:07;7.40;99.90
21592;DHT22;10958;50.892;3.992;2023-02-10T13:22:10;7.60;99.90
21592;DHT22;10958;50.892;3.992;2023-02-10T13:30:03;7.70;99.90
21592;DHT22;10958;50.892;3.992;2023-02-10T13:32:54;7.60;99.90
21592;DHT22;10958;50.892;3.992;2023-02-10T13:35:24;7.90;99.90
21592;DHT22;10958;50.892;3.992;2023-02-10T13:37:55;8.10;99.90
21592;DHT22;10958;50.892;3.992;2023-02-10T13:40:25;8.20;99.90
21592;DHT22;10958;50.892;3.992;2023-02-10T13:42:54;8.20;99.90
21592;DHT22;10958;50.892;3.992;2023-02-10T13:45:25;8.30;99.90
21592;DHT22;10958;50.892;3.992;2023-02-10T13:48:07;8.30;99.90
21592;DHT22;10958;50.892;3.992;2023-02-10T13:50:52;8.30;99.90
21592;DHT22;10958;50.892;3.992;2023-02-10T13:58:56;8.20;99.90
21592;DHT22;10958;50.892;3.992;2023-02-10T14:01:51;8.30;99.90
21592;DHT22;10958;50.892;3.992;2023-02-10T14:04:41;8.30;99.90
21592;DHT22;10958;50.892;3.992;2023-02-10T14:07:31;8.30;99.90
21592;DHT22;10958;50.892;3.992;2023-02-10T14:10:04;8.30;99.90
21592;DHT22;10958;50.892;3.992;2023-02-10T14:12:31;8.40;99.90
21592;DHT22;10958;50.892;3.992;2023-02-10T14:15:21;8.30;99.90
21592;DHT22;10958;50.892;3.992;2023-02-10T14:18:05;8.30;99.90
21592;DHT22;10958;50.892;3.992;2023-02-10T14:20:38;8.30;99.90
21592;DHT22;10958;50.892;3.992;2023-02-10T14:23:21;8.30;99.90
21592;DHT22;10958;50.892;3.992;2023-02-10T14:26:16;8.40;99.90
21592;DHT22;10958;50.892;3.992;2023-02-10T14:28:48;8.40;99.90
21592;DHT22;10958;50.892;3.992;2023-02-10T14:31:23;8.40;99.90
21592;DHT22;10958;50.892;3.992;2023-02-10T14:33:59;8.50;99.90
21592;DHT22;10958;50.892;3.992;2023-02-10T14:36:28;8.50;99.90
21592;DHT22;10958;50.892;3.992;2023-02-10T14:39:00;8.50;99.90
21592;DHT22;10958;50.892;3.992;2023-02-10T14:41:31;8.60;99.90
21592;DHT22;10958;50.892;3.992;2023-02-10T14:44:00;8.50;99.90
21592;DHT22;10958;50.892;3.992;2023-02-10T14:46:29;8.60;99.90
21592;DHT22;10958;50.892;3.992;2023-02-10T14:49:07;8.50;99.90
21592;DHT22;10958;50.892;3.992;2023-02-10T14:51:44;8.50;99.90
21592;DHT22;10958;50.892;3.992;2023-02-10T14:56:57;8.60;99.90
21592;DHT22;10958;50.892;3.992;2023-02-10T14:59:29;8.70;99.90
21592;DHT22;10958;50.892;3.992;2023-02-10T15:02:17;8.70;99.90
21592;DHT22;10958;50.892;3.992;2023-02-10T15:04:46;8.70;99.90
21592;DHT22;10958;50.892;3.992;2023-02-10T15:07:26;8.60;99.90
21592;DHT22;10958;50.892;3.992;2023-02-10T15:09:53;8.50;99.90
21592;DHT22;10958;50.892;3.992;2023-02-10T15:12:22;8.60;99.90
21592;DHT22;10958;50.892;3.992;2023-02-10T15:14:51;8.60;99.90
21592;DHT22;10958;50.892;3.992;2023-02-10T15:17:25;8.60;99.90
21592;DHT22;10958;50.892;3.992;2023-02-10T15:20:16;8.60;99.90
21592;DHT22;10958;50.892;3.992;2023-02-10T15:22:49;8.70;99.90
21592;DHT22;10958;50.892;3.992;2023-02-10T15:33:21;8.50;99.90
21592;DHT22;10958;50.892;3.992;2023-02-10T15:36:22;8.50;99.90
21592;DHT22;10958;50.892;3.992;2023-02-10T15:46:51;8.50;99.90
21592;DHT22;10958;50.892;3.992;2023-02-10T15:49:19;8.50;99.90
21592;DHT22;10958;50.892;3.992;2023-02-10T15:51:54;8.50;99.90
21592;DHT22;10958;50.892;3.992;2023-02-10T15:54:25;8.50;99.90
21592;DHT22;10958;50.892;3.992;2023-02-10T15:59:21;8.40;99.90
21592;DHT22;10958;50.892;3.992;2023-02-10T16:01:53;8.30;99.90
21592;DHT22;10958;50.892;3.992;2023-02-10T16:04:19;8.20;99.90
21592;DHT22;10958;50.892;3.992;2023-02-10T16:06:44;8.20;99.90
21592;DHT22;10958;50.892;3.992;2023-02-10T16:09:11;8.30;99.90
21592;DHT22;10958;50.892;3.992;2023-02-10T16:11:37;8.40;99.90
21592;DHT22;10958;50.892;3.992;2023-02-10T16:14:03;8.40;99.90
21592;DHT22;10958;50.892;3.992;2023-02-10T16:16:29;8.40;99.90
21592;DHT22;10958;50.892;3.992;2023-02-10T16:18:55;8.30;99.90
21592;DHT22;10958;50.892;3.992;2023-02-10T16:21:21;8.20;99.90
21592;DHT22;10958;50.892;3.992;2023-02-10T16:23:50;8.00;99.90
21592;DHT22;10958;50.892;3.992;2023-02-10T16:26:23;8.00;99.90
21592;DHT22;10958;50.892;3.992;2023-02-10T16:28:50;8.00;99.90
21592;DHT22;10958;50.892;3.992;2023-02-10T16:31:16;8.00;99.90
21592;DHT22;10958;50.892;3.992;2023-02-10T16:33:44;7.90;99.90
21592;DHT22;10958;50.892;3.992;2023-02-10T16:36:13;7.90;99.90
21592;DHT22;10958;50.892;3.992;2023-02-10T16:38:39;7.80;99.90
21592;DHT22;10958;50.892;3.992;2023-02-10T16:41:05;7.80;99.90
21592;DHT22;10958;50.892;3.992;2023-02-10T16:43:31;7.90;99.90
21592;DHT22;10958;50.892;3.992;2023-02-10T16:45:58;7.90;99.90
21592;DHT22;10958;50.892;3.992;2023-02-10T16:48:23;8.00;99.90
21592;DHT22;10958;50.892;3.992;2023-02-10T16:50:49;8.10;99.90
21592;DHT22;10958;50.892;3.992;2023-02-10T16:53:17;8.10;99.90
21592;DHT22;10958;50.892;3.992;2023-02-10T16:55:45;8.10;99.90
21592;DHT22;10958;50.892;3.992;2023-02-10T16:58:15;7.90;99.90
21592;DHT22;10958;50.892;3.992;2023-02-10T17:00:42;7.80;99.90
21592;DHT22;10958;50.892;3.992;2023-02-10T17:03:09;7.70;99.90
21592;DHT22;10958;50.892;3.992;2023-02-10T17:05:34;7.70;99.90
21592;DHT22;10958;50.892;3.992;2023-02-10T17:08:03;7.80;99.90
21592;DHT22;10958;50.892;3.992;2023-02-10T17:10:29;7.80;99.90
21592;DHT22;10958;50.892;3.992;2023-02-10T17:12:56;7.90;99.90
21592;DHT22;10958;50.892;3.992;2023-02-10T17:15:25;8.00;99.90
21592;DHT22;10958;50.892;3.992;2023-02-10T17:17:51;8.10;99.90
21592;DHT22;10958;50.892;3.992;2023-02-10T17:20:23;8.00;99.90
21592;DHT22;10958;50.892;3.992;2023-02-10T17:22:52;7.80;99.90
21592;DHT22;10958;50.892;3.992;2023-02-10T17:25:18;7.70;99.90
21592;DHT22;10958;50.892;3.992;2023-02-10T17:27:45;7.60;99.90
21592;DHT22;10958;50.892;3.992;2023-02-10T17:30:13;7.60;99.90
21592;DHT22;10958;50.892;3.992;2023-02-10T17:32:39;7.60;99.90
21592;DHT22;10958;50.892;3.992;2023-02-10T17:35:10;7.50;99.90
21592;DHT22;10958;50.892;3.992;2023-02-10T17:37:36;7.50;99.90
21592;DHT22;10958;50.892;3.992;2023-02-10T17:40:02;7.50;99.90
21592;DHT22;10958;50.892;3.992;2023-02-10T17:42:47;7.50;99.90
21592;DHT22;10958;50.892;3.992;2023-02-10T17:45:14;7.40;99.90
21592;DHT22;10958;50.892;3.992;2023-02-10T17:47:39;7.40;99.90
21592;DHT22;10958;50.892;3.992;2023-02-10T17:50:05;7.30;99.90
21592;DHT22;10958;50.892;3.992;2023-02-10T17:52:32;7.30;99.90
21592;DHT22;10958;50.892;3.992;2023-02-10T17:54:58;7.20;99.90
21592;DHT22;10958;50.892;3.992;2023-02-10T17:57:24;7.20;99.90
21592;DHT22;10958;50.892;3.992;2023-02-10T17:59:50;7.10;99.90
21592;DHT22;10958;50.892;3.992;2023-02-10T18:02:18;7.10;99.90
21592;DHT22;10958;50.892;3.992;2023-02-10T18:04:46;7.00;99.90